sensor_id;sensor_type;location;lat;lon;timestamp;temperature;humidity
435;DHT22;204;48.942;9.256;2022-08-03T00:01:52;19.40;99.90
435;DHT22;204;48.942;9.256;2022-08-03T00:04:18;19.40;99.90
435;DHT22;204;48.942;9.256;2022-08-03T00:06:44;19.30;99.90
435;DHT22;204;48.942;9.256;2022-08-03T00:09:09;19.30;99.90
435;DHT22;204;48.942;9.256;2022-08-03T00:11:36;19.20;99.90
435;DHT22;204;48.942;9.256;2022-08-03T00:14:04;19.20;99.90
435;DHT22;204;48.942;9.256;2022-08-03T00:16:29;19.20;99.90
435;DHT22;204;48.942;9.256;2022-08-03T00:18:55;19.10;99.90
435;DHT22;204;48.942;9.256;2022-08-03T00:21:20;19.10;99.90
435;DHT22;204;48.942;9.256;2022-08-03T00:23:46;19.00;99.90
435;DHT22;204;48.942;9.256;2022-08-03T00:26:12;19.00;99.90
435;DHT22;204;48.942;9.256;2022-08-03T00:28:37;19.00;99.90
435;DHT22;204;48.942;9.256;2022-08-03T00:31:03;19.00;99.90
435;DHT22;204;48.942;9.256;2022-08-03T00:33:28;18.90;99.90
435;DHT22;204;48.942;9.256;2022-08-03T00:35:54;18.80;99.90
435;DHT22;204;48.942;9.256;2022-08-03T00:38:20;18.80;99.90
435;DHT22;204;48.942;9.256;2022-08-03T00:40:45;18.80;99.90
435;DHT22;204;48.942;9.256;2022-08-03T00:43:11;18.80;99.90
435;DHT22;204;48.942;9.256;2022-08-03T00:45:39;18.80;99.90
435;DHT22;204;48.942;9.256;2022-08-03T00:48:06;18.70;99.90
435;DHT22;204;48.942;9.256;2022-08-03T00:50:38;18.70;99.90
435;DHT22;204;48.942;9.256;2022-08-03T00:53:05;18.70;99.90
435;DHT22;204;48.942;9.256;2022-08-03T00:55:32;18.70;99.90
435;DHT22;204;48.942;9.256;2022-08-03T00:58:00;18.70;99.90
435;DHT22;204;48.942;9.256;2022-08-03T01:00:29;18.70;99.90
435;DHT22;204;48.942;9.256;2022-08-03T01:02:54;18.70;99.90
435;DHT22;204;48.942;9.256;2022-08-03T01:05:20;18.70;99.90
435;DHT22;204;48.942;9.256;2022-08-03T01:08:08;18.70;99.90
435;DHT22;204;48.942;9.256;2022-08-03T01:14:05;18.60;99.90
435;DHT22;204;48.942;9.256;2022-08-03T01:16:36;18.60;99.90
435;DHT22;204;48.942;9.256;2022-08-03T01:25:39;18.60;99.90
435;DHT22;204;48.942;9.256;2022-08-03T01:30:42;18.60;99.90
435;DHT22;204;48.942;9.256;2022-08-03T01:33:19;18.60;99.90
435;DHT22;204;48.942;9.256;2022-08-03T01:36:02;18.60;99.90
435;DHT22;204;48.942;9.256;2022-08-03T01:38:31;18.70;99.90
435;DHT22;204;48.942;9.256;2022-08-03T01:41:12;18.70;99.90
435;DHT22;204;48.942;9.256;2022-08-03T01:43:41;18.70;99.90
435;DHT22;204;48.942;9.256;2022-08-03T01:46:10;18.60;99.90
435;DHT22;204;48.942;9.256;2022-08-03T01:48:37;18.60;99.90
435;DHT22;204;48.942;9.256;2022-08-03T01:51:05;18.60;99.90
435;DHT22;204;48.942;9.256;2022-08-03T01:53:32;18.60;99.90
435;DHT22;204;48.942;9.256;2022-08-03T01:56:00;18.60;99.90
435;DHT22;204;48.942;9.256;2022-08-03T01:58:27;18.60;99.90
435;DHT22;204;48.942;9.256;2022-08-03T02:00:54;18.60;99.90
435;DHT22;204;48.942;9.256;2022-08-03T02:03:24;18.50;99.90
435;DHT22;204;48.942;9.256;2022-08-03T02:05:52;18.50;99.90
435;DHT22;204;48.942;9.256;2022-08-03T02:08:18;18.40;99.90
435;DHT22;204;48.942;9.256;2022-08-03T02:10:44;18.40;99.90
435;DHT22;204;48.942;9.256;2022-08-03T02:13:12;18.40;99.90
435;DHT22;204;48.942;9.256;2022-08-03T02:15:38;18.40;99.90
435;DHT22;204;48.942;9.256;2022-08-03T02:18:08;18.30;99.90
435;DHT22;204;48.942;9.256;2022-08-03T02:20:35;18.30;99.90
435;DHT22;204;48.942;9.256;2022-08-03T02:23:03;18.20;99.90
435;DHT22;204;48.942;9.256;2022-08-03T02:25:32;18.20;99.90
435;DHT22;204;48.942;9.256;2022-08-03T02:28:08;18.20;99.90
435;DHT22;204;48.942;9.256;2022-08-03T02:30:37;18.10;99.90
435;DHT22;204;48.942;9.256;2022-08-03T02:33:04;18.10;99.90
435;DHT22;204;48.942;9.256;2022-08-03T02:35:32;18.10;99.90
435;DHT22;204;48.942;9.256;2022-08-03T02:38:04;18.10;99.90
435;DHT22;204;48.942;9.256;2022-08-03T02:40:32;18.10;99.90
435;DHT22;204;48.942;9.256;2022-08-03T02:43:09;18.00;99.90
435;DHT22;204;48.942;9.256;2022-08-03T02:45:42;18.00;99.90
435;DHT22;204;48.942;9.256;2022-08-03T02:48:09;18.00;99.90
435;DHT22;204;48.942;9.256;2022-08-03T02:50:36;18.00;99.90
435;DHT22;204;48.942;9.256;2022-08-03T02:53:03;17.90;99.90
435;DHT22;204;48.942;9.256;2022-08-03T02:55:29;17.90;99.90
435;DHT22;204;48.942;9.256;2022-08-03T02:57:58;17.90;99.90
435;DHT22;204;48.942;9.256;2022-08-03T03:00:24;17.90;99.90
435;DHT22;204;48.942;9.256;2022-08-03T03:02:51;17.90;99.90
435;DHT22;204;48.942;9.256;2022-08-03T03:05:17;17.80;99.90
435;DHT22;204;48.942;9.256;2022-08-03T03:07:42;17.80;99.90
435;DHT22;204;48.942;9.256;2022-08-03T03:10:09;17.80;99.90
435;DHT22;204;48.942;9.256;2022-08-03T03:12:36;17.70;99.90
435;DHT22;204;48.942;9.256;2022-08-03T03:15:04;17.70;99.90
435;DHT22;204;48.942;9.256;2022-08-03T03:17:32;17.70;99.90
435;DHT22;204;48.942;9.256;2022-08-03T03:19:58;17.70;99.90
435;DHT22;204;48.942;9.256;2022-08-03T03:22:25;17.70;99.90
435;DHT22;204;48.942;9.256;2022-08-03T03:24:51;17.70;99.90
435;DHT22;204;48.942;9.256;2022-08-03T03:27:19;17.80;99.90
435;DHT22;204;48.942;9.256;2022-08-03T03:29:46;17.80;99.90
435;DHT22;204;48.942;9.256;2022-08-03T03:32:12;17.70;99.90
435;DHT22;204;48.942;9.256;2022-08-03T03:34:38;17.70;99.90
435;DHT22;204;48.942;9.256;2022-08-03T03:37:03;17.70;99.90
435;DHT22;204;48.942;9.256;2022-08-03T03:39:29;17.70;99.90
435;DHT22;204;48.942;9.256;2022-08-03T03:41:55;17.60;99.90
435;DHT22;204;48.942;9.256;2022-08-03T03:44:26;17.60;99.90
435;DHT22;204;48.942;9.256;2022-08-03T03:46:52;17.60;99.90
435;DHT22;204;48.942;9.256;2022-08-03T03:49:18;17.60;99.90
435;DHT22;204;48.942;9.256;2022-08-03T03:51:44;17.50;99.90
435;DHT22;204;48.942;9.256;2022-08-03T03:54:09;17.50;99.90
435;DHT22;204;48.942;9.256;2022-08-03T03:56:35;17.50;99.90
435;DHT22;204;48.942;9.256;2022-08-03T03:59:01;17.50;99.90
435;DHT22;204;48.942;9.256;2022-08-03T04:01:26;17.50;99.90
435;DHT22;204;48.942;9.256;2022-08-03T04:03:52;17.50;99.90
435;DHT22;204;48.942;9.256;2022-08-03T04:06:18;17.50;99.90
435;DHT22;204;48.942;9.256;2022-08-03T04:09:05;17.50;99.90
435;DHT22;204;48.942;9.256;2022-08-03T04:11:52;17.50;99.90
435;DHT22;204;48.942;9.256;2022-08-03T04:14:27;17.60;99.90
435;DHT22;204;48.942;9.256;2022-08-03T04:17:00;17.60;99.90
435;DHT22;204;48.942;9.256;2022-08-03T04:19:41;17.60;99.90
435;DHT22;204;48.942;9.256;2022-08-03T04:22:13;17.60;99.90
435;DHT22;204;48.942;9.256;2022-08-03T04:24:45;17.60;99.90
435;DHT22;204;48.942;9.256;2022-08-03T04:27:15;17.60;99.90
435;DHT22;204;48.942;9.256;2022-08-03T04:29:46;17.60;99.90
435;DHT22;204;48.942;9.256;2022-08-03T04:32:14;17.70;99.90
435;DHT22;204;48.942;9.256;2022-08-03T04:34:40;17.80;99.90
435;DHT22;204;48.942;9.256;2022-08-03T04:37:29;17.90;99.90
435;DHT22;204;48.942;9.256;2022-08-03T04:39:57;18.00;99.90
435;DHT22;204;48.942;9.256;2022-08-03T04:42:26;18.10;99.90
435;DHT22;204;48.942;9.256;2022-08-03T04:44:52;18.20;99.90
435;DHT22;204;48.942;9.256;2022-08-03T04:47:19;18.40;99.90
435;DHT22;204;48.942;9.256;2022-08-03T04:49:45;18.50;99.90
435;DHT22;204;48.942;9.256;2022-08-03T04:52:11;18.70;99.90
435;DHT22;204;48.942;9.256;2022-08-03T04:54:43;18.90;99.90
435;DHT22;204;48.942;9.256;2022-08-03T04:57:10;19.20;99.90
435;DHT22;204;48.942;9.256;2022-08-03T04:59:36;19.50;99.90
435;DHT22;204;48.942;9.256;2022-08-03T05:02:02;19.70;99.90
435;DHT22;204;48.942;9.256;2022-08-03T05:04:28;20.00;99.90
435;DHT22;204;48.942;9.256;2022-08-03T05:06:54;20.10;99.90
435;DHT22;204;48.942;9.256;2022-08-03T05:09:19;20.30;99.90
435;DHT22;204;48.942;9.256;2022-08-03T05:11:45;20.50;99.90
435;DHT22;204;48.942;9.256;2022-08-03T05:14:10;20.70;99.90
435;DHT22;204;48.942;9.256;2022-08-03T05:16:36;20.80;99.90
435;DHT22;204;48.942;9.256;2022-08-03T05:19:02;20.90;99.90
435;DHT22;204;48.942;9.256;2022-08-03T05:21:27;21.10;99.90
435;DHT22;204;48.942;9.256;2022-08-03T05:23:53;21.20;99.90
435;DHT22;204;48.942;9.256;2022-08-03T05:26:19;21.30;99.90
435;DHT22;204;48.942;9.256;2022-08-03T05:28:45;21.50;99.90
435;DHT22;204;48.942;9.256;2022-08-03T05:31:10;21.60;99.90
435;DHT22;204;48.942;9.256;2022-08-03T05:33:37;21.70;99.90
435;DHT22;204;48.942;9.256;2022-08-03T05:36:04;21.90;99.90
435;DHT22;204;48.942;9.256;2022-08-03T05:38:31;22.10;99.90
435;DHT22;204;48.942;9.256;2022-08-03T05:40:57;22.30;99.90
435;DHT22;204;48.942;9.256;2022-08-03T05:43:23;22.50;99.90
435;DHT22;204;48.942;9.256;2022-08-03T05:45:48;22.70;99.90
435;DHT22;204;48.942;9.256;2022-08-03T05:48:14;22.90;99.90
435;DHT22;204;48.942;9.256;2022-08-03T05:50:40;23.10;99.90
435;DHT22;204;48.942;9.256;2022-08-03T05:53:05;23.30;99.90
435;DHT22;204;48.942;9.256;2022-08-03T05:55:31;23.60;99.90
435;DHT22;204;48.942;9.256;2022-08-03T05:57:56;23.80;99.90
435;DHT22;204;48.942;9.256;2022-08-03T06:00:22;24.00;99.90
435;DHT22;204;48.942;9.256;2022-08-03T06:02:48;24.20;99.90
435;DHT22;204;48.942;9.256;2022-08-03T06:05:14;24.40;99.90
435;DHT22;204;48.942;9.256;2022-08-03T06:07:39;24.50;99.90
435;DHT22;204;48.942;9.256;2022-08-03T06:10:05;24.80;99.90
435;DHT22;204;48.942;9.256;2022-08-03T06:12:31;24.90;99.90
435;DHT22;204;48.942;9.256;2022-08-03T06:15:00;25.10;99.90
435;DHT22;204;48.942;9.256;2022-08-03T06:17:26;25.20;99.90
435;DHT22;204;48.942;9.256;2022-08-03T06:19:52;25.30;99.90
435;DHT22;204;48.942;9.256;2022-08-03T06:22:18;25.40;99.90
435;DHT22;204;48.942;9.256;2022-08-03T06:24:44;25.40;99.90
435;DHT22;204;48.942;9.256;2022-08-03T06:27:09;25.40;99.90
435;DHT22;204;48.942;9.256;2022-08-03T06:29:36;25.40;99.90
435;DHT22;204;48.942;9.256;2022-08-03T06:32:02;25.40;99.90
435;DHT22;204;48.942;9.256;2022-08-03T06:34:27;25.40;99.90
435;DHT22;204;48.942;9.256;2022-08-03T06:36:53;25.50;99.90
435;DHT22;204;48.942;9.256;2022-08-03T06:39:22;25.50;99.90
435;DHT22;204;48.942;9.256;2022-08-03T06:41:48;25.70;99.90
435;DHT22;204;48.942;9.256;2022-08-03T06:44:14;25.80;99.90
435;DHT22;204;48.942;9.256;2022-08-03T06:46:39;25.90;99.90
435;DHT22;204;48.942;9.256;2022-08-03T06:49:06;26.00;99.90
435;DHT22;204;48.942;9.256;2022-08-03T06:51:31;26.00;99.90
435;DHT22;204;48.942;9.256;2022-08-03T06:53:57;26.10;99.90
435;DHT22;204;48.942;9.256;2022-08-03T06:56:22;26.10;99.90
435;DHT22;204;48.942;9.256;2022-08-03T06:58:48;26.20;99.90
435;DHT22;204;48.942;9.256;2022-08-03T07:01:14;26.30;99.90
435;DHT22;204;48.942;9.256;2022-08-03T07:03:39;26.40;99.90
435;DHT22;204;48.942;9.256;2022-08-03T07:06:05;26.60;99.90
435;DHT22;204;48.942;9.256;2022-08-03T07:08:31;26.60;99.90
435;DHT22;204;48.942;9.256;2022-08-03T07:10:57;26.70;99.90
435;DHT22;204;48.942;9.256;2022-08-03T07:13:22;26.80;99.90
435;DHT22;204;48.942;9.256;2022-08-03T07:15:48;27.00;99.90
435;DHT22;204;48.942;9.256;2022-08-03T07:18:13;27.20;99.90
435;DHT22;204;48.942;9.256;2022-08-03T07:20:39;27.30;99.90
435;DHT22;204;48.942;9.256;2022-08-03T07:23:05;27.40;99.90
435;DHT22;204;48.942;9.256;2022-08-03T07:25:31;27.60;99.90
435;DHT22;204;48.942;9.256;2022-08-03T07:27:56;27.70;99.90
435;DHT22;204;48.942;9.256;2022-08-03T07:30:22;27.80;99.90
435;DHT22;204;48.942;9.256;2022-08-03T07:32:48;27.90;99.90
435;DHT22;204;48.942;9.256;2022-08-03T07:35:14;28.00;99.90
435;DHT22;204;48.942;9.256;2022-08-03T07:37:39;28.00;99.90
435;DHT22;204;48.942;9.256;2022-08-03T07:40:05;28.10;99.90
435;DHT22;204;48.942;9.256;2022-08-03T07:42:31;28.20;99.90
435;DHT22;204;48.942;9.256;2022-08-03T07:44:57;28.30;99.90
435;DHT22;204;48.942;9.256;2022-08-03T07:47:25;28.40;99.90
435;DHT22;204;48.942;9.256;2022-08-03T07:49:53;28.50;99.90
435;DHT22;204;48.942;9.256;2022-08-03T07:52:19;28.60;99.90
435;DHT22;204;48.942;9.256;2022-08-03T07:55:04;28.70;99.90
435;DHT22;204;48.942;9.256;2022-08-03T07:57:30;28.80;99.90
435;DHT22;204;48.942;9.256;2022-08-03T07:59:56;29.00;99.90
435;DHT22;204;48.942;9.256;2022-08-03T08:02:21;29.10;99.90
435;DHT22;204;48.942;9.256;2022-08-03T08:04:47;29.30;99.90
435;DHT22;204;48.942;9.256;2022-08-03T08:07:13;29.40;99.90
435;DHT22;204;48.942;9.256;2022-08-03T08:09:38;29.60;99.90
435;DHT22;204;48.942;9.256;2022-08-03T08:12:04;29.70;99.90
435;DHT22;204;48.942;9.256;2022-08-03T08:14:32;29.90;99.90
435;DHT22;204;48.942;9.256;2022-08-03T08:16:58;29.90;99.90
435;DHT22;204;48.942;9.256;2022-08-03T08:19:23;30.00;99.90
435;DHT22;204;48.942;9.256;2022-08-03T08:21:49;30.10;99.90
435;DHT22;204;48.942;9.256;2022-08-03T08:24:14;30.20;99.90
435;DHT22;204;48.942;9.256;2022-08-03T08:26:40;30.20;99.90
435;DHT22;204;48.942;9.256;2022-08-03T08:29:06;30.30;99.90
435;DHT22;204;48.942;9.256;2022-08-03T08:31:31;30.40;99.90
435;DHT22;204;48.942;9.256;2022-08-03T08:33:57;30.60;99.90
435;DHT22;204;48.942;9.256;2022-08-03T08:36:22;30.60;99.90
435;DHT22;204;48.942;9.256;2022-08-03T08:38:48;30.70;99.90
435;DHT22;204;48.942;9.256;2022-08-03T08:41:14;30.70;99.90
435;DHT22;204;48.942;9.256;2022-08-03T08:43:40;30.80;99.90
435;DHT22;204;48.942;9.256;2022-08-03T08:46:10;30.90;99.90
435;DHT22;204;48.942;9.256;2022-08-03T08:48:40;31.00;99.90
435;DHT22;204;48.942;9.256;2022-08-03T08:51:07;31.10;99.90
435;DHT22;204;48.942;9.256;2022-08-03T08:53:35;31.20;99.90
435;DHT22;204;48.942;9.256;2022-08-03T08:56:02;31.40;99.90
435;DHT22;204;48.942;9.256;2022-08-03T08:58:29;31.40;99.90
435;DHT22;204;48.942;9.256;2022-08-03T09:00:56;31.50;99.90
435;DHT22;204;48.942;9.256;2022-08-03T09:03:22;31.50;99.90
435;DHT22;204;48.942;9.256;2022-08-03T09:05:48;31.60;99.90
435;DHT22;204;48.942;9.256;2022-08-03T09:08:14;31.60;99.90
435;DHT22;204;48.942;9.256;2022-08-03T09:10:40;31.50;99.90
435;DHT22;204;48.942;9.256;2022-08-03T09:13:06;31.50;99.90
435;DHT22;204;48.942;9.256;2022-08-03T09:15:32;31.50;99.90
435;DHT22;204;48.942;9.256;2022-08-03T09:17:59;31.60;99.90
435;DHT22;204;48.942;9.256;2022-08-03T09:20:27;31.80;99.90
435;DHT22;204;48.942;9.256;2022-08-03T09:25:42;32.00;99.90
435;DHT22;204;48.942;9.256;2022-08-03T09:28:17;31.90;99.90
435;DHT22;204;48.942;9.256;2022-08-03T09:30:45;32.00;99.90
435;DHT22;204;48.942;9.256;2022-08-03T09:33:22;32.10;99.90
435;DHT22;204;48.942;9.256;2022-08-03T09:35:48;32.10;99.90
435;DHT22;204;48.942;9.256;2022-08-03T09:38:23;32.10;99.90
435;DHT22;204;48.942;9.256;2022-08-03T09:40:50;32.20;99.90
435;DHT22;204;48.942;9.256;2022-08-03T09:43:16;32.20;99.90
435;DHT22;204;48.942;9.256;2022-08-03T09:45:42;32.30;99.90
435;DHT22;204;48.942;9.256;2022-08-03T09:48:21;32.30;99.90
435;DHT22;204;48.942;9.256;2022-08-03T09:53:16;32.60;99.90
435;DHT22;204;48.942;9.256;2022-08-03T09:55:59;32.70;99.90
435;DHT22;204;48.942;9.256;2022-08-03T09:58:27;32.70;99.90
435;DHT22;204;48.942;9.256;2022-08-03T10:01:02;32.70;99.90
435;DHT22;204;48.942;9.256;2022-08-03T10:03:30;32.60;99.90
435;DHT22;204;48.942;9.256;2022-08-03T10:05:56;32.50;99.90
435;DHT22;204;48.942;9.256;2022-08-03T10:08:22;32.60;99.90
435;DHT22;204;48.942;9.256;2022-08-03T10:10:50;32.60;99.90
435;DHT22;204;48.942;9.256;2022-08-03T10:13:19;32.60;99.90
435;DHT22;204;48.942;9.256;2022-08-03T10:15:45;32.80;99.90
435;DHT22;204;48.942;9.256;2022-08-03T10:18:11;32.90;99.90
435;DHT22;204;48.942;9.256;2022-08-03T10:20:44;33.00;99.90
435;DHT22;204;48.942;9.256;2022-08-03T10:23:13;33.10;99.90
435;DHT22;204;48.942;9.256;2022-08-03T10:25:43;33.20;99.90
435;DHT22;204;48.942;9.256;2022-08-03T10:28:12;33.30;99.90
435;DHT22;204;48.942;9.256;2022-08-03T10:30:40;33.40;99.90
435;DHT22;204;48.942;9.256;2022-08-03T10:33:27;33.50;99.90
435;DHT22;204;48.942;9.256;2022-08-03T10:35:56;33.50;99.90
435;DHT22;204;48.942;9.256;2022-08-03T10:38:28;33.40;99.90
435;DHT22;204;48.942;9.256;2022-08-03T10:40:57;33.40;99.90
435;DHT22;204;48.942;9.256;2022-08-03T10:43:32;33.40;99.90
435;DHT22;204;48.942;9.256;2022-08-03T10:45:59;33.40;99.90
435;DHT22;204;48.942;9.256;2022-08-03T10:48:26;33.20;99.90
435;DHT22;204;48.942;9.256;2022-08-03T10:50:52;33.30;99.90
435;DHT22;204;48.942;9.256;2022-08-03T10:53:39;33.30;99.90
435;DHT22;204;48.942;9.256;2022-08-03T10:59:17;33.30;99.90
435;DHT22;204;48.942;9.256;2022-08-03T11:01:54;33.30;99.90
435;DHT22;204;48.942;9.256;2022-08-03T11:04:22;33.40;99.90
435;DHT22;204;48.942;9.256;2022-08-03T11:07:23;33.40;99.90
435;DHT22;204;48.942;9.256;2022-08-03T11:09:50;33.50;99.90
435;DHT22;204;48.942;9.256;2022-08-03T11:14:53;33.60;99.90
435;DHT22;204;48.942;9.256;2022-08-03T11:17:19;33.60;99.90
435;DHT22;204;48.942;9.256;2022-08-03T11:19:49;33.60;99.90
435;DHT22;204;48.942;9.256;2022-08-03T11:22:16;33.60;99.90
435;DHT22;204;48.942;9.256;2022-08-03T11:33:00;33.60;99.90
435;DHT22;204;48.942;9.256;2022-08-03T11:35:29;33.70;99.90
435;DHT22;204;48.942;9.256;2022-08-03T11:40:45;33.60;99.90
435;DHT22;204;48.942;9.256;2022-08-03T11:48:38;33.50;99.90
435;DHT22;204;48.942;9.256;2022-08-03T11:51:06;33.30;99.90
435;DHT22;204;48.942;9.256;2022-08-03T11:53:32;33.10;99.90
435;DHT22;204;48.942;9.256;2022-08-03T11:56:00;33.10;99.90
435;DHT22;204;48.942;9.256;2022-08-03T11:58:26;33.20;99.90
435;DHT22;204;48.942;9.256;2022-08-03T12:01:05;33.30;99.90
435;DHT22;204;48.942;9.256;2022-08-03T12:03:32;33.40;99.90
435;DHT22;204;48.942;9.256;2022-08-03T12:05:59;33.40;99.90
435;DHT22;204;48.942;9.256;2022-08-03T12:10:53;33.50;99.90
435;DHT22;204;48.942;9.256;2022-08-03T12:13:20;33.50;99.90
435;DHT22;204;48.942;9.256;2022-08-03T12:15:51;33.60;99.90
435;DHT22;204;48.942;9.256;2022-08-03T12:18:17;33.50;99.90
435;DHT22;204;48.942;9.256;2022-08-03T12:20:45;33.60;99.90
435;DHT22;204;48.942;9.256;2022-08-03T12:23:11;33.50;99.90
435;DHT22;204;48.942;9.256;2022-08-03T12:25:38;33.50;99.90
435;DHT22;204;48.942;9.256;2022-08-03T12:28:12;33.40;99.90
435;DHT22;204;48.942;9.256;2022-08-03T12:30:40;33.40;99.90
435;DHT22;204;48.942;9.256;2022-08-03T12:33:17;33.30;99.90
435;DHT22;204;48.942;9.256;2022-08-03T12:35:45;33.30;99.90
435;DHT22;204;48.942;9.256;2022-08-03T12:38:11;33.30;99.90
435;DHT22;204;48.942;9.256;2022-08-03T12:40:38;33.30;99.90
435;DHT22;204;48.942;9.256;2022-08-03T12:43:12;33.40;99.90
435;DHT22;204;48.942;9.256;2022-08-03T12:45:38;33.40;99.90
435;DHT22;204;48.942;9.256;2022-08-03T12:48:08;33.40;99.90
435;DHT22;204;48.942;9.256;2022-08-03T12:50:36;33.40;99.90
435;DHT22;204;48.942;9.256;2022-08-03T12:53:04;33.30;99.90
435;DHT22;204;48.942;9.256;2022-08-03T12:55:31;33.30;99.90
435;DHT22;204;48.942;9.256;2022-08-03T12:58:03;33.40;99.90
435;DHT22;204;48.942;9.256;2022-08-03T13:00:29;33.40;99.90
435;DHT22;204;48.942;9.256;2022-08-03T13:03:13;33.40;99.90
435;DHT22;204;48.942;9.256;2022-08-03T13:05:42;33.40;99.90
435;DHT22;204;48.942;9.256;2022-08-03T13:08:23;33.40;99.90
435;DHT22;204;48.942;9.256;2022-08-03T13:10:49;33.50;99.90
435;DHT22;204;48.942;9.256;2022-08-03T13:13:15;33.50;99.90
435;DHT22;204;48.942;9.256;2022-08-03T13:15:41;33.50;99.90
435;DHT22;204;48.942;9.256;2022-08-03T13:18:07;33.50;99.90
435;DHT22;204;48.942;9.256;2022-08-03T13:20:33;33.60;99.90
435;DHT22;204;48.942;9.256;2022-08-03T13:22:59;33.50;99.90
435;DHT22;204;48.942;9.256;2022-08-03T13:25:24;33.50;99.90
435;DHT22;204;48.942;9.256;2022-08-03T13:27:50;33.40;99.90
435;DHT22;204;48.942;9.256;2022-08-03T13:30:17;33.40;99.90
435;DHT22;204;48.942;9.256;2022-08-03T13:32:43;33.40;99.90
435;DHT22;204;48.942;9.256;2022-08-03T13:35:09;33.40;99.90
435;DHT22;204;48.942;9.256;2022-08-03T13:37:36;33.40;99.90
435;DHT22;204;48.942;9.256;2022-08-03T13:40:04;33.40;99.90
435;DHT22;204;48.942;9.256;2022-08-03T13:42:31;33.40;99.90
435;DHT22;204;48.942;9.256;2022-08-03T13:44:58;33.40;99.90
435;DHT22;204;48.942;9.256;2022-08-03T13:47:24;33.40;99.90
435;DHT22;204;48.942;9.256;2022-08-03T13:49:49;33.40;99.90
435;DHT22;204;48.942;9.256;2022-08-03T13:52:16;33.40;99.90
435;DHT22;204;48.942;9.256;2022-08-03T13:54:42;33.40;99.90
435;DHT22;204;48.942;9.256;2022-08-03T13:57:08;33.50;99.90
435;DHT22;204;48.942;9.256;2022-08-03T13:59:35;33.50;99.90
435;DHT22;204;48.942;9.256;2022-08-03T14:02:01;33.50;99.90
435;DHT22;204;48.942;9.256;2022-08-03T14:04:27;33.50;99.90
435;DHT22;204;48.942;9.256;2022-08-03T14:06:52;33.50;99.90
435;DHT22;204;48.942;9.256;2022-08-03T14:09:18;33.40;99.90
435;DHT22;204;48.942;9.256;2022-08-03T14:11:44;33.40;99.90
435;DHT22;204;48.942;9.256;2022-08-03T14:14:10;33.50;99.90
435;DHT22;204;48.942;9.256;2022-08-03T14:16:36;33.50;99.90
435;DHT22;204;48.942;9.256;2022-08-03T14:19:03;33.50;99.90
435;DHT22;204;48.942;9.256;2022-08-03T14:21:29;33.50;99.90
435;DHT22;204;48.942;9.256;2022-08-03T14:23:54;33.40;99.90
435;DHT22;204;48.942;9.256;2022-08-03T14:26:21;33.40;99.90
435;DHT22;204;48.942;9.256;2022-08-03T14:28:46;33.40;99.90
435;DHT22;204;48.942;9.256;2022-08-03T14:31:12;33.40;99.90
435;DHT22;204;48.942;9.256;2022-08-03T14:33:38;33.50;99.90
435;DHT22;204;48.942;9.256;2022-08-03T14:36:04;33.40;99.90
435;DHT22;204;48.942;9.256;2022-08-03T14:38:30;33.40;99.90
435;DHT22;204;48.942;9.256;2022-08-03T14:40:55;33.40;99.90
435;DHT22;204;48.942;9.256;2022-08-03T14:43:21;33.40;99.90
435;DHT22;204;48.942;9.256;2022-08-03T14:45:48;33.40;99.90
435;DHT22;204;48.942;9.256;2022-08-03T14:48:17;33.30;99.90
435;DHT22;204;48.942;9.256;2022-08-03T14:50:42;33.30;99.90
435;DHT22;204;48.942;9.256;2022-08-03T14:53:08;33.30;99.90
435;DHT22;204;48.942;9.256;2022-08-03T14:55:34;33.20;99.90
435;DHT22;204;48.942;9.256;2022-08-03T14:57:59;33.30;99.90
435;DHT22;204;48.942;9.256;2022-08-03T15:00:30;33.20;99.90
435;DHT22;204;48.942;9.256;2022-08-03T15:02:56;33.20;99.90
435;DHT22;204;48.942;9.256;2022-08-03T15:05:21;33.20;99.90
435;DHT22;204;48.942;9.256;2022-08-03T15:07:47;33.20;99.90
435;DHT22;204;48.942;9.256;2022-08-03T15:10:12;33.20;99.90
435;DHT22;204;48.942;9.256;2022-08-03T15:12:38;33.10;99.90
435;DHT22;204;48.942;9.256;2022-08-03T15:15:04;33.20;99.90
435;DHT22;204;48.942;9.256;2022-08-03T15:17:30;33.20;99.90
435;DHT22;204;48.942;9.256;2022-08-03T15:19:55;33.20;99.90
435;DHT22;204;48.942;9.256;2022-08-03T15:22:21;33.20;99.90
435;DHT22;204;48.942;9.256;2022-08-03T15:24:46;33.10;99.90
435;DHT22;204;48.942;9.256;2022-08-03T15:27:12;33.10;99.90
435;DHT22;204;48.942;9.256;2022-08-03T15:29:38;33.10;99.90
435;DHT22;204;48.942;9.256;2022-08-03T15:32:03;33.10;99.90
435;DHT22;204;48.942;9.256;2022-08-03T15:34:29;33.10;99.90
435;DHT22;204;48.942;9.256;2022-08-03T15:36:55;33.10;99.90
435;DHT22;204;48.942;9.256;2022-08-03T15:39:20;33.10;99.90
435;DHT22;204;48.942;9.256;2022-08-03T15:41:46;33.10;99.90
435;DHT22;204;48.942;9.256;2022-08-03T15:44:11;33.10;99.90
435;DHT22;204;48.942;9.256;2022-08-03T15:46:37;33.10;99.90
435;DHT22;204;48.942;9.256;2022-08-03T15:49:03;33.10;99.90
435;DHT22;204;48.942;9.256;2022-08-03T15:51:28;33.10;99.90
435;DHT22;204;48.942;9.256;2022-08-03T15:53:54;33.10;99.90
435;DHT22;204;48.942;9.256;2022-08-03T15:56:21;33.10;99.90
435;DHT22;204;48.942;9.256;2022-08-03T15:58:47;33.00;99.90
435;DHT22;204;48.942;9.256;2022-08-03T16:01:13;33.00;99.90
435;DHT22;204;48.942;9.256;2022-08-03T16:03:39;32.90;99.90
435;DHT22;204;48.942;9.256;2022-08-03T16:06:05;32.90;99.90
435;DHT22;204;48.942;9.256;2022-08-03T16:08:32;32.90;99.90
435;DHT22;204;48.942;9.256;2022-08-03T16:10:57;32.90;99.90
435;DHT22;204;48.942;9.256;2022-08-03T16:13:23;32.80;99.90
435;DHT22;204;48.942;9.256;2022-08-03T16:15:49;32.80;99.90
435;DHT22;204;48.942;9.256;2022-08-03T16:18:15;32.80;99.90
435;DHT22;204;48.942;9.256;2022-08-03T16:20:41;32.80;99.90
435;DHT22;204;48.942;9.256;2022-08-03T16:23:07;32.70;99.90
435;DHT22;204;48.942;9.256;2022-08-03T16:25:32;32.70;99.90
435;DHT22;204;48.942;9.256;2022-08-03T16:27:58;32.70;99.90
435;DHT22;204;48.942;9.256;2022-08-03T16:30:24;32.70;99.90
435;DHT22;204;48.942;9.256;2022-08-03T16:32:50;32.70;99.90
435;DHT22;204;48.942;9.256;2022-08-03T16:35:15;32.60;99.90
435;DHT22;204;48.942;9.256;2022-08-03T16:37:41;32.60;99.90
435;DHT22;204;48.942;9.256;2022-08-03T16:40:09;32.50;99.90
435;DHT22;204;48.942;9.256;2022-08-03T16:42:35;32.50;99.90
435;DHT22;204;48.942;9.256;2022-08-03T16:45:01;32.50;99.90
435;DHT22;204;48.942;9.256;2022-08-03T16:47:27;32.50;99.90
435;DHT22;204;48.942;9.256;2022-08-03T16:49:53;32.50;99.90
435;DHT22;204;48.942;9.256;2022-08-03T16:52:18;32.50;99.90
435;DHT22;204;48.942;9.256;2022-08-03T16:54:45;32.50;99.90
435;DHT22;204;48.942;9.256;2022-08-03T16:57:11;32.40;99.90
435;DHT22;204;48.942;9.256;2022-08-03T16:59:36;32.40;99.90
435;DHT22;204;48.942;9.256;2022-08-03T17:02:03;32.50;99.90
435;DHT22;204;48.942;9.256;2022-08-03T17:04:29;32.40;99.90
435;DHT22;204;48.942;9.256;2022-08-03T17:06:54;32.30;99.90
435;DHT22;204;48.942;9.256;2022-08-03T17:09:20;32.30;99.90
435;DHT22;204;48.942;9.256;2022-08-03T17:11:48;32.20;99.90
435;DHT22;204;48.942;9.256;2022-08-03T17:14:19;32.20;99.90
435;DHT22;204;48.942;9.256;2022-08-03T17:16:47;32.10;99.90
435;DHT22;204;48.942;9.256;2022-08-03T17:19:13;32.10;99.90